Time;durP1;ratioP1;P1;durP2;ratioP2;P2;SDS_P1;SDS_P2;PMS_P1;PMS_P2;Temp;Humidity;BMP_temperature;BMP_pressure;BME280_temperature;BME280_humidity;BME280_pressure;Samples;Min_cycle;Max_cycle;Signal;HPM_P1;HPM_P2
2023/01/31 00:01:09;;;;;;;3.73;2.03;;;4.10;98.00;;;;;;5032982;28;20454;-66
2023/01/31 00:03:37;;;;;;;3.10;1.93;;;4.10;98.00;;;;;;5034040;28;20917;-65
2023/01/31 00:06:13;;;;;;;3.03;2.00;;;4.00;98.00;;;;;;5033777;28;20487;-65
2023/01/31 00:08:40;;;;;;;1.80;1.70;;;4.00;98.00;;;;;;5033640;28;20528;-65
2023/01/31 00:11:08;;;;;;;2.87;2.00;;;4.10;98.00;;;;;;5033426;28;20812;-65
2023/01/31 00:13:35;;;;;;;4.80;1.70;;;4.00;98.00;;;;;;5033715;28;20520;-65
2023/01/31 00:16:02;;;;;;;2.70;1.67;;;4.10;98.00;;;;;;5033669;28;20463;-65
2023/01/31 00:18:31;;;;;;;2.93;1.93;;;4.10;98.00;;;;;;5032481;28;20490;-65
2023/01/31 00:20:58;;;;;;;1.60;1.40;;;4.00;98.00;;;;;;5033531;28;20458;-65
2023/01/31 00:23:25;;;;;;;2.20;1.73;;;4.00;98.00;;;;;;5033563;28;20455;-65
2023/01/31 00:25:52;;;;;;;1.90;1.63;;;4.00;98.00;;;;;;5033278;28;20964;-65
2023/01/31 00:28:19;;;;;;;2.63;1.47;;;4.00;98.00;;;;;;5033655;28;20524;-66
2023/01/31 00:30:46;;;;;;;2.73;1.17;;;4.00;98.00;;;;;;5033287;28;20463;-65
2023/01/31 00:33:13;;;;;;;1.40;1.30;;;4.00;98.00;;;;;;5033449;28;20520;-65
2023/01/31 00:35:42;;;;;;;2.10;1.77;;;4.00;98.00;;;;;;5033177;28;20447;-65
2023/01/31 00:38:11;;;;;;;1.50;1.50;;;4.00;98.00;;;;;;5033239;28;20486;-65
2023/01/31 00:40:38;;;;;;;13.10;2.37;;;4.10;98.00;;;;;;5031806;28;20463;-66
2023/01/31 00:43:05;;;;;;;2.80;1.40;;;4.10;98.00;;;;;;5033096;28;20520;-65
2023/01/31 00:45:33;;;;;;;3.30;1.60;;;4.00;98.00;;;;;;5031819;28;21015;-66
2023/01/31 00:48:00;;;;;;;1.63;1.53;;;4.10;98.00;;;;;;5032964;28;20455;-65
2023/01/31 00:50:29;;;;;;;1.60;1.50;;;4.10;98.00;;;;;;5033225;28;20452;-65
2023/01/31 00:52:58;;;;;;;3.77;2.00;;;4.10;98.00;;;;;;5031570;28;20463;-66
2023/01/31 00:55:26;;;;;;;2.07;1.37;;;4.00;98.00;;;;;;5032904;28;20508;-66
2023/01/31 00:57:53;;;;;;;2.37;1.60;;;4.00;98.00;;;;;;5031424;28;20456;-65
2023/01/31 01:00:20;;;;;;;2.03;1.83;;;3.90;98.00;;;;;;5031704;28;20512;-65
2023/01/31 01:02:48;;;;;;;2.10;1.57;;;4.00;98.00;;;;;;5032593;28;20452;-65
2023/01/31 01:05:15;;;;;;;1.60;1.57;;;4.10;98.00;;;;;;5032872;28;20459;-65
2023/01/31 01:07:42;;;;;;;4.40;2.90;;;4.00;98.00;;;;;;5032553;28;20473;-65
2023/01/31 01:10:12;;;;;;;1.37;1.37;;;4.10;98.00;;;;;;5031622;28;20459;-65
2023/01/31 01:12:42;;;;;;;1.80;1.70;;;4.10;98.00;;;;;;5031726;28;20463;-65
2023/01/31 01:15:10;;;;;;;2.33;1.67;;;4.00;98.00;;;;;;5032718;28;20459;-65
2023/01/31 01:17:37;;;;;;;4.10;1.80;;;4.00;98.00;;;;;;5032572;28;21125;-65
2023/01/31 01:20:05;;;;;;;1.53;1.40;;;4.00;98.00;;;;;;5032432;28;20596;-65
2023/01/31 01:22:33;;;;;;;2.37;1.30;;;4.00;98.00;;;;;;5032431;28;20504;-65
2023/01/31 01:25:00;;;;;;;1.73;1.40;;;3.90;98.00;;;;;;5032299;28;20467;-65
2023/01/31 01:27:29;;;;;;;1.50;1.43;;;4.00;98.00;;;;;;5032302;28;20454;-65
2023/01/31 01:29:57;;;;;;;1.50;1.30;;;4.00;98.00;;;;;;5032330;28;20458;-65
2023/01/31 01:32:25;;;;;;;2.13;1.80;;;4.00;98.00;;;;;;5032074;28;20949;-65
2023/01/31 01:34:52;;;;;;;1.93;1.60;;;4.00;98.00;;;;;;5032090;28;20463;-66
2023/01/31 01:37:19;;;;;;;4.23;2.07;;;4.00;98.00;;;;;;5031005;28;20659;-65
2023/01/31 01:39:47;;;;;;;1.20;1.20;;;4.00;98.00;;;;;;5030799;28;20916;-65
2023/01/31 01:42:16;;;;;;;1.40;1.30;;;4.10;98.00;;;;;;5031892;28;20464;-65
2023/01/31 01:44:48;;;;;;;2.27;1.53;;;4.10;98.00;;;;;;5032032;28;20541;-65
2023/01/31 01:47:30;;;;;;;2.53;1.70;;;4.10;98.00;;;;;;5031892;28;20462;-65
2023/01/31 01:50:00;;;;;;;1.97;1.30;;;4.20;98.00;;;;;;5031906;28;20475;-65
2023/01/31 01:52:30;;;;;;;1.43;1.23;;;4.10;98.00;;;;;;5031833;28;21023;-65
2023/01/31 01:55:01;;;;;;;2.67;1.70;;;4.10;98.00;;;;;;5031760;28;20958;-65
2023/01/31 01:57:36;;;;;;;2.07;1.73;;;4.10;98.00;;;;;;5031791;28;20856;-65
2023/01/31 02:00:11;;;;;;;2.07;1.67;;;4.00;98.00;;;;;;5031664;28;20498;-65
2023/01/31 02:02:40;;;;;;;1.83;1.57;;;4.00;98.00;;;;;;5031728;28;20604;-66
2023/01/31 02:05:09;;;;;;;1.90;1.60;;;4.10;98.00;;;;;;5031726;28;20519;-65
2023/01/31 02:07:36;;;;;;;1.70;1.50;;;4.10;98.00;;;;;;5031536;28;20463;-65
2023/01/31 02:10:08;;;;;;;1.93;1.60;;;4.10;98.00;;;;;;5031859;28;20456;-65
2023/01/31 02:12:36;;;;;;;1.40;1.27;;;4.10;98.00;;;;;;5031755;28;20473;-65
2023/01/31 02:15:07;;;;;;;2.13;1.60;;;4.00;98.00;;;;;;5031483;28;20512;-65
2023/01/31 02:17:35;;;;;;;4.00;1.50;;;3.90;98.00;;;;;;5031191;28;20447;-65
2023/01/31 02:20:24;;;;;;;1.50;1.40;;;4.00;98.00;;;;;;5031309;28;20487;-65
2023/01/31 02:23:10;;;;;;;1.20;1.20;;;4.20;98.00;;;;;;5015642;28;20536;-65
2023/01/31 02:26:25;;;;;;;4.80;1.80;;;4.10;98.00;;;;;;5030325;28;20462;-65
2023/01/31 02:29:23;;;;;;;2.53;1.60;;;4.00;98.00;;;;;;4984228;28;20503;-66
2023/01/31 02:32:32;;;;;;;1.80;1.50;;;4.00;98.00;;;;;;5030144;28;20489;-65
2023/01/31 02:35:10;;;;;;;7.03;1.83;;;4.10;98.00;;;;;;4969901;28;20623;-65
2023/01/31 02:37:45;;;;;;;3.27;2.17;;;4.00;98.00;;;;;;5020991;28;20463;-65
2023/01/31 02:40:22;;;;;;;1.57;1.40;;;3.90;98.00;;;;;;5030991;28;20485;-66
2023/01/31 02:43:01;;;;;;;1.93;1.53;;;3.90;98.00;;;;;;5031111;28;20450;-65
2023/01/31 02:45:36;;;;;;;1.90;1.67;;;4.00;98.00;;;;;;5031306;28;20493;-66
2023/01/31 02:48:15;;;;;;;1.30;1.20;;;4.00;98.00;;;;;;5031350;28;20981;-65
2023/01/31 02:50:49;;;;;;;1.10;1.10;;;3.90;98.00;;;;;;5030164;28;20732;-65
2023/01/31 02:53:22;;;;;;;1.10;1.10;;;3.90;98.00;;;;;;5031044;28;20462;-66
2023/01/31 02:58:42;;;;;;;2.57;1.53;;;3.90;98.00;;;;;;5031392;28;20479;-66
2023/01/31 03:01:13;;;;;;;6.17;1.60;;;3.90;98.00;;;;;;5032035;28;20538;-66
2023/01/31 03:03:41;;;;;;;1.67;1.60;;;3.90;98.00;;;;;;5031168;28;20460;-65
2023/01/31 03:06:58;;;;;;;1.97;1.87;;;4.00;98.00;;;;;;5030941;28;20458;-65
2023/01/31 03:09:35;;;;;;;2.10;1.43;;;3.90;98.00;;;;;;5031263;28;20550;-65
2023/01/31 03:12:18;;;;;;;3.17;1.93;;;3.90;98.00;;;;;;5031280;28;20494;-65
2023/01/31 03:14:51;;;;;;;1.30;1.13;;;3.80;98.00;;;;;;5029418;28;20508;-65
2023/01/31 03:17:30;;;;;;;3.50;1.80;;;3.70;98.00;;;;;;5029451;28;20455;-65
2023/01/31 03:20:04;;;;;;;1.70;1.27;;;3.70;98.00;;;;;;5030752;28;20483;-65
2023/01/31 03:22:37;;;;;;;2.60;1.80;;;3.80;98.00;;;;;;5030834;28;20459;-65
2023/01/31 03:25:07;;;;;;;1.87;1.33;;;3.80;98.00;;;;;;5030857;28;20479;-65
2023/01/31 03:27:35;;;;;;;1.50;1.20;;;3.90;98.00;;;;;;5030786;28;20460;-65
2023/01/31 03:30:09;;;;;;;1.93;1.47;;;3.90;98.00;;;;;;5030936;28;20522;-65
2023/01/31 03:32:41;;;;;;;11.47;1.93;;;3.90;98.00;;;;;;5030838;28;20829;-65
2023/01/31 03:35:09;;;;;;;1.17;1.17;;;3.80;98.00;;;;;;5031460;28;20832;-65
2023/01/31 03:37:46;;;;;;;1.50;1.37;;;3.80;98.00;;;;;;5034263;28;20496;-65
2023/01/31 03:40:20;;;;;;;2.50;1.43;;;3.80;98.00;;;;;;5034276;28;20482;-65
2023/01/31 03:42:51;;;;;;;2.37;1.80;;;3.90;98.00;;;;;;5034168;28;20975;-65
2023/01/31 03:45:25;;;;;;;1.20;1.17;;;3.80;98.00;;;;;;5034288;28;20840;-65
2023/01/31 03:47:54;;;;;;;1.57;1.30;;;3.80;98.00;;;;;;5034214;28;20463;-65
2023/01/31 03:50:26;;;;;;;2.43;1.70;;;3.80;98.00;;;;;;5032926;28;20465;-65
2023/01/31 03:53:00;;;;;;;1.60;1.50;;;3.80;98.00;;;;;;5034073;28;20460;-66
2023/01/31 03:55:34;;;;;;;2.50;1.77;;;3.90;98.00;;;;;;5034207;28;20517;-66
2023/01/31 03:58:03;;;;;;;2.43;1.77;;;3.80;98.00;;;;;;5033886;28;20817;-66
2023/01/31 04:00:33;;;;;;;2.83;1.80;;;3.80;98.00;;;;;;5034044;28;20488;-65
2023/01/31 04:03:09;;;;;;;1.30;1.20;;;3.80;98.00;;;;;;5032741;28;20467;-65
2023/01/31 04:05:36;;;;;;;2.33;1.47;;;3.70;98.00;;;;;;5034085;28;20468;-65
2023/01/31 04:08:05;;;;;;;1.70;1.67;;;3.80;98.00;;;;;;5033883;28;20478;-65
2023/01/31 04:10:33;;;;;;;4.80;2.90;;;3.70;98.00;;;;;;5034025;28;20521;-65
2023/01/31 04:13:01;;;;;;;1.87;1.50;;;3.80;98.00;;;;;;5033796;28;20463;-65
2023/01/31 04:15:28;;;;;;;1.90;1.47;;;3.70;98.00;;;;;;5032684;28;20517;-65
2023/01/31 04:17:55;;;;;;;5.90;4.00;;;3.80;98.00;;;;;;5032500;28;20459;-65
2023/01/31 04:20:23;;;;;;;1.90;1.60;;;3.80;98.00;;;;;;5033667;28;20485;-65
2023/01/31 04:22:50;;;;;;;1.80;1.50;;;3.80;98.00;;;;;;5033522;28;20455;-65
2023/01/31 04:25:19;;;;;;;2.13;1.70;;;3.80;98.00;;;;;;5033576;28;20467;-65
2023/01/31 04:27:46;;;;;;;2.97;1.43;;;3.80;98.00;;;;;;5033551;28;20474;-65
2023/01/31 04:30:13;;;;;;;2.23;1.63;;;3.80;98.00;;;;;;5033465;28;20962;-66
2023/01/31 04:32:40;;;;;;;2.07;1.93;;;3.80;98.00;;;;;;5032922;28;20461;-65
2023/01/31 04:35:09;;;;;;;1.70;1.40;;;3.80;98.00;;;;;;5033499;28;20464;-66
2023/01/31 04:37:36;;;;;;;1.70;1.53;;;3.90;98.00;;;;;;5033246;28;20460;-65
2023/01/31 04:40:04;;;;;;;3.83;1.87;;;3.90;98.00;;;;;;5031923;28;20491;-65
2023/01/31 04:42:33;;;;;;;1.50;1.30;;;3.90;98.00;;;;;;5033093;28;20461;-65
2023/01/31 04:45:00;;;;;;;1.67;1.30;;;3.90;98.00;;;;;;5031906;28;20470;-65
2023/01/31 04:47:27;;;;;;;2.23;1.20;;;3.80;98.00;;;;;;5032929;28;20824;-65
2023/01/31 04:49:54;;;;;;;1.53;1.33;;;3.80;98.00;;;;;;5031765;28;20465;-66
2023/01/31 04:52:23;;;;;;;2.60;2.20;;;3.80;98.00;;;;;;5033003;28;20971;-65
2023/01/31 04:54:50;;;;;;;1.30;1.10;;;3.80;98.00;;;;;;5032839;28;20978;-65
2023/01/31 04:57:17;;;;;;;19.87;1.70;;;3.90;98.00;;;;;;5032863;28;20463;-65
2023/01/31 04:59:46;;;;;;;2.80;2.03;;;3.90;98.00;;;;;;5032737;28;20852;-65
2023/01/31 05:02:14;;;;;;;2.37;2.17;;;3.80;98.00;;;;;;5032823;28;20459;-65
2023/01/31 05:04:41;;;;;;;2.90;1.87;;;3.80;98.00;;;;;;5033185;28;20465;-65
2023/01/31 05:07:08;;;;;;;2.40;1.50;;;3.80;98.00;;;;;;5032661;28;20464;-65
2023/01/31 05:09:35;;;;;;;1.20;1.10;;;3.90;98.00;;;;;;5031734;28;20457;-65
2023/01/31 05:12:02;;;;;;;1.50;1.40;;;3.80;98.00;;;;;;5032652;28;20455;-65
2023/01/31 05:14:29;;;;;;;11.77;1.87;;;3.70;98.00;;;;;;5032835;28;20452;-65
2023/01/31 05:16:58;;;;;;;1.70;1.37;;;3.70;98.00;;;;;;5031306;28;20468;-65
2023/01/31 05:19:25;;;;;;;3.53;2.00;;;3.70;98.00;;;;;;5032436;28;20492;-65
2023/01/31 05:21:57;;;;;;;1.90;1.27;;;3.60;98.00;;;;;;5031338;28;20464;-65
2023/01/31 05:24:26;;;;;;;1.57;1.20;;;3.50;98.00;;;;;;5031315;28;20463;-65
2023/01/31 05:26:57;;;;;;;1.83;1.60;;;3.50;98.00;;;;;;5030988;28;20467;-65
2023/01/31 05:29:25;;;;;;;4.83;1.73;;;3.60;98.00;;;;;;5032285;28;20873;-66
2023/01/31 05:31:52;;;;;;;1.77;1.20;;;3.60;98.00;;;;;;5030855;28;20544;-65
2023/01/31 05:34:21;;;;;;;7.27;1.77;;;3.50;98.00;;;;;;5032128;28;20470;-65
2023/01/31 05:36:48;;;;;;;1.60;1.30;;;3.40;98.00;;;;;;5032017;28;21003;-65
2023/01/31 05:39:15;;;;;;;2.73;1.60;;;3.40;98.00;;;;;;5032000;28;20461;-65
2023/01/31 05:41:43;;;;;;;2.00;1.50;;;3.30;98.00;;;;;;5031977;28;20464;-65
2023/01/31 05:44:10;;;;;;;2.30;1.63;;;3.30;98.00;;;;;;5031996;28;20464;-65
2023/01/31 05:46:38;;;;;;;1.70;1.43;;;3.30;98.00;;;;;;5031896;28;20491;-65
2023/01/31 05:49:05;;;;;;;1.70;1.30;;;3.30;98.00;;;;;;5031872;28;20454;-65
2023/01/31 05:51:33;;;;;;;1.97;1.40;;;3.20;98.00;;;;;;5031790;28;20478;-65
2023/01/31 05:54:00;;;;;;;5.47;1.70;;;3.20;98.00;;;;;;5031820;28;20986;-66
2023/01/31 05:56:28;;;;;;;1.67;1.57;;;3.10;98.00;;;;;;5031783;28;20455;-65
2023/01/31 05:58:55;;;;;;;2.80;1.43;;;3.10;98.00;;;;;;5029898;28;20459;-65
2023/01/31 06:01:24;;;;;;;3.27;1.30;;;3.10;98.00;;;;;;5031729;28;20506;-65
2023/01/31 06:03:51;;;;;;;1.70;1.30;;;3.20;98.00;;;;;;5030583;28;20451;-65
2023/01/31 06:06:20;;;;;;;2.20;1.60;;;3.20;98.00;;;;;;5032003;28;20953;-65
2023/01/31 06:08:48;;;;;;;1.60;1.50;;;3.20;98.00;;;;;;5030646;28;20467;-65
2023/01/31 06:11:17;;;;;;;1.57;1.40;;;3.20;98.00;;;;;;5031471;28;20451;-65
2023/01/31 06:13:44;;;;;;;2.57;1.70;;;3.20;98.00;;;;;;5031644;28;20874;-65
2023/01/31 06:16:11;;;;;;;1.40;1.27;;;3.20;98.00;;;;;;5030293;28;20455;-65
2023/01/31 06:18:40;;;;;;;4.03;1.53;;;3.20;98.00;;;;;;5031554;28;20460;-65
2023/01/31 06:21:07;;;;;;;2.47;1.53;;;3.20;98.00;;;;;;5030113;28;20560;-65
2023/01/31 06:23:34;;;;;;;2.37;1.90;;;3.30;98.00;;;;;;5031457;28;20462;-65
2023/01/31 06:26:02;;;;;;;2.30;1.57;;;3.20;98.00;;;;;;5031101;28;20458;-65
2023/01/31 06:28:30;;;;;;;1.30;1.23;;;3.30;98.00;;;;;;5031258;28;20447;-65
2023/01/31 06:30:57;;;;;;;2.10;1.70;;;3.20;98.00;;;;;;5031567;28;20452;-65
2023/01/31 06:33:24;;;;;;;3.10;1.73;;;3.20;98.00;;;;;;5030141;28;20940;-65
2023/01/31 06:35:51;;;;;;;2.90;1.73;;;3.00;98.00;;;;;;5031209;28;20455;-65
2023/01/31 06:38:18;;;;;;;1.30;1.20;;;3.00;98.00;;;;;;5029861;28;20465;-65
2023/01/31 06:40:45;;;;;;;2.60;2.07;;;3.00;98.00;;;;;;5031268;28;20491;-65
2023/01/31 06:43:14;;;;;;;1.40;1.30;;;2.90;98.00;;;;;;5031181;28;20458;-65
2023/01/31 06:45:44;;;;;;;3.17;1.60;;;2.80;98.00;;;;;;5031020;28;20466;-66
2023/01/31 06:48:11;;;;;;;4.93;2.43;;;2.70;98.00;;;;;;5031014;28;20561;-66
2023/01/31 06:50:38;;;;;;;22.43;2.30;;;2.60;98.00;;;;;;5031076;28;20462;-65
2023/01/31 06:53:06;;;;;;;2.13;1.67;;;2.50;98.00;;;;;;5030998;28;20486;-66
2023/01/31 06:55:33;;;;;;;2.77;1.40;;;2.50;98.00;;;;;;5031339;28;20849;-65
2023/01/31 06:58:00;;;;;;;4.83;2.33;;;2.40;98.00;;;;;;5031093;28;20635;-65
2023/01/31 07:00:28;;;;;;;1.73;1.53;;;2.30;98.00;;;;;;5030869;28;20542;-62
2023/01/31 07:02:55;;;;;;;2.13;1.47;;;2.30;98.00;;;;;;5030947;28;20470;-62
2023/01/31 07:05:23;;;;;;;2.70;1.63;;;2.30;98.00;;;;;;5031405;28;21002;-62
2023/01/31 07:07:50;;;;;;;2.07;1.47;;;2.20;98.00;;;;;;5030942;28;20469;-62
2023/01/31 07:10:18;;;;;;;1.70;1.33;;;2.30;98.00;;;;;;5033301;28;20465;-62
2023/01/31 07:12:45;;;;;;;2.07;1.77;;;2.40;98.00;;;;;;5033541;28;20458;-62
2023/01/31 07:15:12;;;;;;;3.30;1.60;;;2.40;98.00;;;;;;5035051;28;20461;-61
2023/01/31 07:17:42;;;;;;;2.73;1.60;;;2.50;98.00;;;;;;5034703;28;20992;-62
2023/01/31 07:20:11;;;;;;;2.70;1.50;;;2.60;98.00;;;;;;5034714;28;20854;-62
2023/01/31 07:22:38;;;;;;;1.30;1.30;;;2.70;98.00;;;;;;5034573;28;20459;-62
2023/01/31 07:25:06;;;;;;;1.50;1.40;;;2.80;98.00;;;;;;5034574;28;20489;-62
2023/01/31 07:27:33;;;;;;;1.50;1.40;;;2.90;98.00;;;;;;5034441;28;20459;-61
2023/01/31 07:30:00;;;;;;;2.00;1.50;;;3.00;98.00;;;;;;5034150;28;20458;-62
2023/01/31 07:32:30;;;;;;;1.93;1.27;;;3.10;98.00;;;;;;5034663;28;20458;-62
2023/01/31 07:34:58;;;;;;;2.03;1.43;;;3.10;98.00;;;;;;5034303;28;20885;-62
2023/01/31 07:37:25;;;;;;;4.77;1.97;;;3.10;98.00;;;;;;5034617;28;20470;-62
2023/01/31 07:39:52;;;;;;;1.50;1.47;;;3.20;98.00;;;;;;5034106;28;20457;-62
2023/01/31 07:42:19;;;;;;;3.23;1.77;;;3.20;98.00;;;;;;5034817;28;20459;-62
2023/01/31 07:44:46;;;;;;;6.17;1.37;;;3.20;98.00;;;;;;5035049;28;20948;-62
2023/01/31 07:47:14;;;;;;;2.07;1.30;;;3.30;98.00;;;;;;5034330;28;21005;-62
2023/01/31 07:49:42;;;;;;;4.57;2.13;;;3.30;98.00;;;;;;5033010;28;20458;-62
2023/01/31 07:52:10;;;;;;;1.97;1.50;;;3.30;98.00;;;;;;5032975;28;20463;-62
2023/01/31 07:54:37;;;;;;;1.30;1.20;;;3.40;98.00;;;;;;5034534;28;20455;-62
2023/01/31 07:57:04;;;;;;;5.93;1.70;;;3.40;98.00;;;;;;5034144;28;20647;-62
2023/01/31 07:59:31;;;;;;;2.27;1.60;;;3.50;98.00;;;;;;5032899;28;20964;-62
2023/01/31 08:04:43;;;;;;;2.30;2.10;;;3.50;98.00;;;;;;5034327;28;20578;-62
2023/01/31 08:07:12;;;;;;;3.33;1.70;;;3.50;98.00;;;;;;5033808;28;20466;-62
2023/01/31 08:09:49;;;;;;;1.97;1.30;;;3.50;98.00;;;;;;5034522;28;20940;-62
2023/01/31 08:12:16;;;;;;;1.10;1.03;;;3.50;98.00;;;;;;5033850;28;20542;-62
2023/01/31 08:14:43;;;;;;;1.20;1.07;;;3.50;98.00;;;;;;5033832;28;20466;-62
2023/01/31 08:17:11;;;;;;;1.93;1.90;;;3.60;98.00;;;;;;5033705;28;20748;-62
2023/01/31 08:19:38;;;;;;;2.70;1.50;;;3.60;98.00;;;;;;5033770;28;20470;-62
2023/01/31 08:22:05;;;;;;;2.33;1.73;;;3.70;98.00;;;;;;5015125;28;20494;-62
2023/01/31 08:24:34;;;;;;;1.90;1.50;;;3.80;98.00;;;;;;5013408;28;20456;-62
2023/01/31 08:27:01;;;;;;;3.00;2.40;;;3.90;98.00;;;;;;5013578;28;20469;-62
2023/01/31 08:29:28;;;;;;;2.33;2.10;;;3.90;98.00;;;;;;5013504;28;20954;-62
2023/01/31 08:31:57;;;;;;;4.13;1.80;;;4.00;98.00;;;;;;5012138;28;20558;-62
2023/01/31 08:34:24;;;;;;;1.80;1.43;;;4.00;98.00;;;;;;5012168;28;20453;-62
2023/01/31 08:36:53;;;;;;;1.47;1.30;;;4.10;98.00;;;;;;5013239;28;20463;-62
2023/01/31 08:39:20;;;;;;;1.57;1.50;;;4.30;98.00;;;;;;5013272;28;20460;-62
2023/01/31 08:41:48;;;;;;;3.20;2.00;;;4.30;98.00;;;;;;5013202;28;20490;-64
2023/01/31 08:44:16;;;;;;;2.53;1.63;;;4.20;98.00;;;;;;5014046;28;20475;-61
2023/01/31 08:46:44;;;;;;;1.27;1.23;;;4.90;98.00;;;;;;5012208;28;20590;-61
2023/01/31 08:49:12;;;;;;;2.13;1.60;;;5.70;98.00;;;;;;5013917;28;20462;-60
2023/01/31 08:51:38;;;;;;;4.40;2.50;;;6.00;98.00;;;;;;5012067;28;20473;-62
2023/01/31 08:54:06;;;;;;;2.37;1.67;;;6.30;98.00;;;;;;5013769;28;20875;-62
2023/01/31 08:56:35;;;;;;;3.73;1.90;;;5.90;98.00;;;;;;5013708;28;20464;-62
2023/01/31 08:59:04;;;;;;;2.13;1.50;;;5.50;98.00;;;;;;5012368;28;20467;-62
2023/01/31 09:01:31;;;;;;;6.03;2.40;;;5.40;98.00;;;;;;5012927;28;20883;-62
2023/01/31 09:03:59;;;;;;;1.60;1.50;;;5.20;98.00;;;;;;5012806;28;20561;-62
2023/01/31 09:06:27;;;;;;;1.83;1.70;;;5.00;98.00;;;;;;5012789;28;20456;-63
2023/01/31 09:08:56;;;;;;;2.13;1.53;;;5.10;98.00;;;;;;5012975;28;20861;-63
2023/01/31 09:11:26;;;;;;;1.80;1.40;;;4.90;98.00;;;;;;5012852;28;20975;-62
2023/01/31 09:13:53;;;;;;;1.40;1.30;;;4.80;98.00;;;;;;5012644;28;20472;-62
2023/01/31 09:16:22;;;;;;;1.33;1.27;;;5.00;98.00;;;;;;5012803;28;20507;-62
2023/01/31 09:18:50;;;;;;;2.90;2.37;;;5.10;98.00;;;;;;5011971;28;20457;-62
2023/01/31 09:21:19;;;;;;;2.27;2.17;;;5.10;98.00;;;;;;5012492;28;20483;-62
2023/01/31 09:23:47;;;;;;;1.20;1.20;;;5.10;98.00;;;;;;5024505;28;20777;-62
2023/01/31 09:26:19;;;;;;;3.07;2.00;;;5.10;98.00;;;;;;5029624;28;20862;-62
2023/01/31 09:28:51;;;;;;;1.80;1.60;;;5.10;98.00;;;;;;5032402;28;20458;-62
2023/01/31 09:31:20;;;;;;;4.37;1.53;;;4.90;98.00;;;;;;5016981;28;20456;-61
2023/01/31 09:33:49;;;;;;;3.23;1.97;;;4.90;98.00;;;;;;5011407;28;20989;-63
2023/01/31 09:36:17;;;;;;;3.10;1.57;;;4.90;98.00;;;;;;5012280;28;20461;-63
2023/01/31 09:38:45;;;;;;;1.27;1.23;;;4.90;98.00;;;;;;5012259;28;20520;-63
2023/01/31 09:41:19;;;;;;;2.67;1.83;;;5.00;98.00;;;;;;5012194;28;20485;-63
2023/01/31 09:43:50;;;;;;;2.70;1.40;;;5.10;98.00;;;;;;5012010;28;20453;-63
2023/01/31 09:46:21;;;;;;;1.77;1.37;;;5.20;98.00;;;;;;5012183;28;20672;-63
2023/01/31 09:48:52;;;;;;;2.70;1.40;;;5.30;98.00;;;;;;5010701;28;20482;-63
2023/01/31 09:51:19;;;;;;;2.60;1.23;;;5.30;98.00;;;;;;5011997;28;20455;-63
2023/01/31 09:53:47;;;;;;;2.37;2.10;;;5.50;98.00;;;;;;5010489;28;20470;-63
2023/01/31 09:56:23;;;;;;;4.33;2.77;;;5.50;98.00;;;;;;5011900;28;20889;-63
2023/01/31 09:58:59;;;;;;;3.53;1.80;;;5.50;98.00;;;;;;5011952;28;20456;-63
2023/01/31 10:01:37;;;;;;;1.40;1.37;;;5.50;98.00;;;;;;5012012;28;20486;-63
2023/01/31 10:04:24;;;;;;;2.20;1.50;;;5.50;98.00;;;;;;5011861;28;20829;-63
2023/01/31 10:06:58;;;;;;;6.60;2.50;;;5.40;98.00;;;;;;5011648;28;20963;-63
2023/01/31 10:09:32;;;;;;;2.23;1.53;;;5.40;98.00;;;;;;5011367;28;20460;-63
2023/01/31 10:12:03;;;;;;;5.73;1.73;;;5.40;98.00;;;;;;5011794;28;20467;-63
2023/01/31 10:14:35;;;;;;;1.47;1.40;;;5.50;98.00;;;;;;5012240;28;20789;-63
2023/01/31 10:17:10;;;;;;;1.50;1.40;;;5.50;98.00;;;;;;5011672;28;20456;-63
2023/01/31 10:19:47;;;;;;;2.03;1.53;;;5.60;98.00;;;;;;5011796;28;20507;-63
2023/01/31 10:22:21;;;;;;;2.67;2.10;;;5.70;98.00;;;;;;5011506;28;20490;-63
2023/01/31 10:24:52;;;;;;;2.57;1.77;;;5.80;98.00;;;;;;5011757;28;20459;-63
2023/01/31 10:27:28;;;;;;;1.60;1.33;;;5.90;98.00;;;;;;5011530;28;20543;-63
2023/01/31 10:29:59;;;;;;;1.67;1.20;;;6.00;98.00;;;;;;5011495;28;20459;-63
2023/01/31 10:32:30;;;;;;;1.67;1.30;;;6.20;98.00;;;;;;5011481;28;20824;-63
2023/01/31 10:35:02;;;;;;;1.67;1.33;;;6.20;98.00;;;;;;5011263;28;20485;-63
2023/01/31 10:37:36;;;;;;;5.57;1.80;;;6.10;98.00;;;;;;5011089;28;20457;-63
2023/01/31 10:40:10;;;;;;;1.63;1.37;;;6.00;98.00;;;;;;5010951;28;20469;-63
2023/01/31 10:42:39;;;;;;;1.40;1.20;;;6.00;98.00;;;;;;5011201;28;20491;-64
2023/01/31 10:45:16;;;;;;;1.50;1.37;;;5.90;98.00;;;;;;5010974;28;20462;-63
2023/01/31 10:47:49;;;;;;;1.80;1.40;;;5.80;98.00;;;;;;5010045;28;20518;-63
2023/01/31 10:50:22;;;;;;;2.47;1.93;;;5.90;98.00;;;;;;5010793;28;20465;-63
2023/01/31 10:53:06;;;;;;;2.23;1.73;;;5.90;98.00;;;;;;5011170;28;20883;-63
2023/01/31 10:55:50;;;;;;;1.47;1.40;;;5.90;98.00;;;;;;5011204;28;20459;-63
2023/01/31 10:58:21;;;;;;;1.83;1.50;;;5.90;98.00;;;;;;5014896;28;20955;-63
2023/01/31 11:00:48;;;;;;;1.43;1.40;;;5.90;98.00;;;;;;5030598;28;20880;-66
2023/01/31 11:03:16;;;;;;;2.73;1.80;;;5.70;98.00;;;;;;5030917;28;20454;-63
2023/01/31 11:05:49;;;;;;;1.63;1.27;;;5.70;98.00;;;;;;5030456;28;20847;-63
2023/01/31 11:08:30;;;;;;;1.90;1.37;;;5.70;98.00;;;;;;5030673;28;20588;-63
2023/01/31 11:10:58;;;;;;;2.10;1.47;;;5.80;98.00;;;;;;5031052;28;20525;-63
2023/01/31 11:13:26;;;;;;;2.57;1.87;;;5.80;98.00;;;;;;5030822;28;20509;-63
2023/01/31 11:15:55;;;;;;;5.23;2.53;;;5.80;98.00;;;;;;5030615;28;20545;-63
2023/01/31 11:18:44;;;;;;;1.90;1.10;;;5.90;98.00;;;;;;5030962;28;20553;-63
2023/01/31 11:21:20;;;;;;;11.60;1.97;;;5.80;98.00;;;;;;5030431;28;20473;-63
2023/01/31 11:23:48;;;;;;;2.40;1.40;;;5.90;98.00;;;;;;5030685;28;20466;-63
2023/01/31 11:26:26;;;;;;;1.63;1.30;;;5.90;98.00;;;;;;5030721;28;20478;-63
2023/01/31 11:28:53;;;;;;;1.30;1.20;;;5.90;98.00;;;;;;5030601;28;20459;-63
2023/01/31 11:31:29;;;;;;;2.30;1.50;;;5.80;98.00;;;;;;5029566;28;20468;-63
2023/01/31 11:33:58;;;;;;;1.20;1.10;;;5.90;98.00;;;;;;5030476;28;20555;-63
2023/01/31 11:36:32;;;;;;;4.80;1.63;;;5.90;98.00;;;;;;5030536;28;20871;-63
2023/01/31 11:38:59;;;;;;;2.17;1.30;;;6.00;98.00;;;;;;5030738;28;20823;-63
2023/01/31 11:41:33;;;;;;;2.80;1.67;;;6.10;98.00;;;;;;5030530;28;20851;-63
2023/01/31 11:44:14;;;;;;;1.97;1.70;;;6.20;98.00;;;;;;5030382;28;20463;-63
2023/01/31 11:46:49;;;;;;;1.90;1.60;;;6.20;98.00;;;;;;5030459;28;20606;-63
2023/01/31 11:49:29;;;;;;;2.70;1.63;;;6.20;98.00;;;;;;5029407;28;20467;-63
2023/01/31 11:51:59;;;;;;;3.00;1.53;;;6.20;98.00;;;;;;5030310;28;20508;-63
2023/01/31 11:54:30;;;;;;;1.57;1.43;;;6.20;98.00;;;;;;5030616;28;20457;-63
2023/01/31 11:56:59;;;;;;;4.37;1.27;;;6.20;98.00;;;;;;5030906;28;20867;-63
2023/01/31 11:59:30;;;;;;;2.80;1.90;;;6.20;98.00;;;;;;5033957;28;20601;-64
2023/01/31 12:02:00;;;;;;;1.73;1.67;;;6.20;98.00;;;;;;5033588;28;20489;-63
2023/01/31 12:04:32;;;;;;;1.20;1.03;;;6.30;98.00;;;;;;5033808;28;20460;-62
2023/01/31 12:07:03;;;;;;;2.80;2.50;;;6.30;98.00;;;;;;5033605;28;20827;-63
2023/01/31 12:09:41;;;;;;;1.80;1.30;;;6.40;98.00;;;;;;5033481;28;20464;-63
2023/01/31 12:12:32;;;;;;;1.60;1.50;;;6.30;98.00;;;;;;5032736;28;20550;-63
2023/01/31 12:15:04;;;;;;;2.30;1.93;;;6.30;98.00;;;;;;5033650;28;20687;-63
2023/01/31 12:17:40;;;;;;;2.03;1.77;;;6.20;98.00;;;;;;5033840;28;20496;-63
2023/01/31 12:20:19;;;;;;;1.50;1.33;;;6.30;98.00;;;;;;5033932;28;20466;-63
2023/01/31 12:22:56;;;;;;;4.20;1.40;;;6.10;98.00;;;;;;5032315;28;21001;-63
2023/01/31 12:25:35;;;;;;;2.20;1.60;;;6.00;98.00;;;;;;5033653;28;20468;-63
2023/01/31 12:28:12;;;;;;;1.53;1.33;;;6.00;98.00;;;;;;5033578;28;20502;-63
2023/01/31 12:31:01;;;;;;;2.57;1.60;;;5.90;98.00;;;;;;5033468;28;20460;-63
2023/01/31 12:33:46;;;;;;;2.57;1.40;;;5.90;98.00;;;;;;5033630;28;20458;-64
2023/01/31 12:36:28;;;;;;;3.70;1.60;;;6.00;98.00;;;;;;5032381;28;20463;-64
2023/01/31 12:39:23;;;;;;;1.97;1.60;;;5.90;98.00;;;;;;5031980;28;20470;-64
2023/01/31 12:42:05;;;;;;;3.50;1.50;;;6.00;98.00;;;;;;5033219;28;20483;-64
2023/01/31 12:44:45;;;;;;;1.30;1.23;;;6.00;98.00;;;;;;5033275;28;20463;-64
2023/01/31 12:47:37;;;;;;;1.93;1.80;;;6.10;98.00;;;;;;5033082;28;20460;-64
2023/01/31 12:50:24;;;;;;;1.40;1.10;;;6.10;98.00;;;;;;5033090;28;20497;-64
2023/01/31 12:53:06;;;;;;;1.67;1.37;;;6.10;98.00;;;;;;5033186;28;20462;-64
2023/01/31 12:55:42;;;;;;;2.30;1.53;;;6.20;98.00;;;;;;5031907;28;20450;-64
2023/01/31 12:58:28;;;;;;;1.60;1.30;;;6.30;98.00;;;;;;5032945;28;20475;-64
2023/01/31 13:01:01;;;;;;;1.30;1.20;;;6.40;98.00;;;;;;5033014;28;20469;-64
2023/01/31 13:03:39;;;;;;;1.33;1.10;;;6.30;98.00;;;;;;5031727;28;20926;-64
2023/01/31 13:06:14;;;;;;;1.60;1.50;;;6.30;98.00;;;;;;5032867;28;20952;-64
2023/01/31 13:08:46;;;;;;;1.50;1.30;;;6.30;98.00;;;;;;5032569;28;20474;-62
2023/01/31 13:11:19;;;;;;;8.00;1.60;;;6.30;98.00;;;;;;5031793;28;20523;-62
2023/01/31 13:13:50;;;;;;;3.50;1.80;;;6.30;98.00;;;;;;5032869;28;20625;-62
2023/01/31 13:16:22;;;;;;;2.20;1.57;;;6.40;98.00;;;;;;5032854;28;20457;-63
2023/01/31 13:18:52;;;;;;;1.20;1.20;;;6.40;98.00;;;;;;5030399;28;20450;-62
2023/01/31 13:46:44;;;;;;;2.70;1.60;;;5.90;98.00;;;;;;5149767;27;20898;-69
2023/01/31 13:49:19;;;;;;;1.20;1.10;;;6.10;98.00;;;;;;5129722;28;20460;-68